createdAt,value
2018-09-18T00:00:08.655Z,15.30
2018-09-18T00:02:37.005Z,15.30
2018-09-18T00:05:05.404Z,15.30
2018-09-18T00:07:33.775Z,15.30
2018-09-18T00:10:02.104Z,15.30
2018-09-18T00:12:30.485Z,15.30
2018-09-18T00:14:58.917Z,15.30
2018-09-18T00:17:27.258Z,15.30
2018-09-18T00:19:55.566Z,15.20
2018-09-18T00:22:23.946Z,15.20
2018-09-18T00:24:52.239Z,15.20
2018-09-18T00:27:20.563Z,15.10
2018-09-18T00:29:48.951Z,15.10
2018-09-18T00:32:17.322Z,15.10
2018-09-18T00:34:45.679Z,15.00
2018-09-18T00:37:14.023Z,14.90
2018-09-18T00:39:42.376Z,14.90
2018-09-18T00:42:10.734Z,14.80
2018-09-18T00:44:39.111Z,14.70
2018-09-18T00:47:07.436Z,14.70
2018-09-18T00:49:35.772Z,14.70
2018-09-18T00:52:04.142Z,14.70
2018-09-18T00:54:32.470Z,14.60
2018-09-18T00:57:00.837Z,14.60
2018-09-18T00:59:29.179Z,14.50
2018-09-18T01:01:57.495Z,14.40
2018-09-18T01:04:25.903Z,14.40
2018-09-18T01:06:54.254Z,14.40
2018-09-18T01:09:22.581Z,14.20
2018-09-18T01:11:50.953Z,14.20
2018-09-18T01:14:19.249Z,14.20
2018-09-18T01:16:47.608Z,14.30
2018-09-18T01:19:15.951Z,14.30
2018-09-18T01:21:44.317Z,14.30
2018-09-18T01:24:12.662Z,14.20
2018-09-18T01:26:41.015Z,14.20
2018-09-18T01:29:09.397Z,14.20
2018-09-18T01:31:37.709Z,14.20
2018-09-18T01:34:06.091Z,14.10
2018-09-18T01:36:34.425Z,14.10
2018-09-18T01:39:02.838Z,14.00
2018-09-18T01:41:31.184Z,14.00
2018-09-18T01:43:59.520Z,14.00
2018-09-18T01:46:27.867Z,14.00
2018-09-18T01:48:56.209Z,14.00
2018-09-18T01:51:24.589Z,14.00
2018-09-18T01:53:52.937Z,14.00
2018-09-18T01:56:21.283Z,14.00
2018-09-18T01:58:49.644Z,13.90
2018-09-18T02:01:18.091Z,13.80
2018-09-18T02:03:46.422Z,13.80
2018-09-18T02:06:14.798Z,13.90
2018-09-18T02:08:43.219Z,13.80
2018-09-18T02:11:11.630Z,13.80
2018-09-18T02:13:40.024Z,13.80
2018-09-18T02:16:08.472Z,13.80
2018-09-18T02:18:36.840Z,13.80
2018-09-18T02:21:05.246Z,13.70
2018-09-18T02:23:33.624Z,13.70
2018-09-18T02:26:02.036Z,13.70
2018-09-18T02:28:30.386Z,13.70
2018-09-18T02:30:58.728Z,13.70
2018-09-18T02:33:27.069Z,13.70
2018-09-18T02:35:55.480Z,13.70
2018-09-18T02:38:23.796Z,13.70
2018-09-18T02:40:52.126Z,13.70
2018-09-18T02:43:20.482Z,13.70
2018-09-18T02:45:48.915Z,13.70
2018-09-18T02:48:17.289Z,13.60
2018-09-18T02:50:45.608Z,13.50
2018-09-18T02:53:13.988Z,13.50
2018-09-18T02:55:42.348Z,13.50
2018-09-18T02:58:10.696Z,13.50
2018-09-18T03:00:39.057Z,13.50
2018-09-18T03:03:07.648Z,13.50
2018-09-18T03:05:35.964Z,13.40
2018-09-18T03:08:04.367Z,13.40
2018-09-18T03:10:32.692Z,13.30
2018-09-18T03:13:01.040Z,13.30
2018-09-18T03:15:29.366Z,13.30
2018-09-18T03:17:57.693Z,13.30
2018-09-18T03:20:26.067Z,13.30
2018-09-18T03:22:54.439Z,13.30
2018-09-18T03:25:22.791Z,13.20
2018-09-18T03:27:51.157Z,13.20
2018-09-18T03:30:19.551Z,13.20
2018-09-18T03:32:47.951Z,13.20
2018-09-18T03:35:16.345Z,13.10
2018-09-18T03:37:44.697Z,13.10
2018-09-18T03:40:13.037Z,13.10
2018-09-18T03:42:41.394Z,13.10
2018-09-18T03:45:09.747Z,13.10
2018-09-18T03:47:38.109Z,13.10
2018-09-18T03:50:06.423Z,13.00
2018-09-18T03:52:34.768Z,12.90
2018-09-18T03:55:03.132Z,13.00
2018-09-18T03:57:31.545Z,12.90
2018-09-18T03:59:59.921Z,12.90
2018-09-18T04:02:28.271Z,12.90
2018-09-18T04:04:56.628Z,12.90
2018-09-18T04:07:24.954Z,12.80
2018-09-18T04:09:53.296Z,12.80
2018-09-18T04:12:21.677Z,12.80
2018-09-18T04:14:50.030Z,12.70
2018-09-18T04:17:18.493Z,12.80
2018-09-18T04:19:46.850Z,12.70
2018-09-18T04:22:15.176Z,12.80
2018-09-18T04:24:43.540Z,12.80
2018-09-18T04:27:11.892Z,12.80
2018-09-18T04:29:40.264Z,12.80
2018-09-18T04:32:08.577Z,12.80
2018-09-18T04:34:36.937Z,12.80
2018-09-18T04:37:05.320Z,12.80
2018-09-18T04:39:33.639Z,12.80
2018-09-18T04:42:02.060Z,12.70
2018-09-18T04:44:30.392Z,12.70
2018-09-18T04:46:58.743Z,12.70
2018-09-18T04:49:27.086Z,12.60
2018-09-18T04:51:55.450Z,12.60
2018-09-18T04:54:23.847Z,12.60
2018-09-18T04:56:52.208Z,12.60
2018-09-18T04:59:20.542Z,12.70
2018-09-18T05:01:48.912Z,12.70
2018-09-18T05:04:17.313Z,12.70
2018-09-18T05:06:45.709Z,12.80
2018-09-18T05:09:14.161Z,12.80
2018-09-18T05:11:42.452Z,12.80
2018-09-18T05:14:10.808Z,12.80
2018-09-18T05:16:39.204Z,12.80
2018-09-18T05:19:07.532Z,12.80
2018-09-18T05:21:35.975Z,12.90
2018-09-18T05:24:04.296Z,12.90
2018-09-18T05:26:32.656Z,12.90
2018-09-18T05:29:01.009Z,12.90
2018-09-18T05:31:29.348Z,12.90
2018-09-18T05:33:57.691Z,12.90
2018-09-18T05:36:26.067Z,13.00
2018-09-18T05:38:54.474Z,13.00
2018-09-18T05:41:22.868Z,13.00
2018-09-18T05:43:51.300Z,13.10
2018-09-18T05:46:19.672Z,13.10
2018-09-18T05:48:48.029Z,13.20
2018-09-18T05:51:16.372Z,13.20
2018-09-18T05:53:44.694Z,13.20
2018-09-18T05:56:13.056Z,13.20
2018-09-18T05:58:41.398Z,13.30
2018-09-18T06:01:09.733Z,13.40
2018-09-18T06:03:38.155Z,13.40
2018-09-18T06:06:06.244Z,13.50
2018-09-18T06:08:34.590Z,13.50
2018-09-18T06:11:02.912Z,13.60
2018-09-18T06:13:31.528Z,13.60
2018-09-18T06:15:59.899Z,13.70
2018-09-18T06:18:28.249Z,13.80
2018-09-18T06:20:56.611Z,13.90
2018-09-18T06:23:24.957Z,13.90
2018-09-18T06:25:53.307Z,14.00
2018-09-18T06:28:21.702Z,14.20
2018-09-18T06:30:50.101Z,14.20
2018-09-18T06:33:18.480Z,14.30
2018-09-18T06:35:46.846Z,14.40
2018-09-18T06:38:15.191Z,14.50
2018-09-18T06:40:43.528Z,14.70
2018-09-18T06:43:11.876Z,14.80
2018-09-18T06:45:40.198Z,14.80
2018-09-18T06:48:08.607Z,15.00
2018-09-18T06:50:36.912Z,15.10
2018-09-18T06:53:05.228Z,15.20
2018-09-18T06:55:33.580Z,15.30
2018-09-18T06:58:01.935Z,15.40
2018-09-18T07:00:30.278Z,15.50
2018-09-18T07:02:58.609Z,15.60
2018-09-18T07:05:27.005Z,15.70
2018-09-18T07:07:55.310Z,15.80
2018-09-18T07:10:23.660Z,16.00
2018-09-18T07:12:52.022Z,16.10
2018-09-18T07:15:20.384Z,16.20
2018-09-18T07:17:48.771Z,16.40
2018-09-18T07:20:17.145Z,16.50
2018-09-18T07:22:45.480Z,16.70
2018-09-18T07:25:13.808Z,16.80
2018-09-18T07:27:42.148Z,17.00
2018-09-18T07:30:10.625Z,17.30
2018-09-18T07:32:38.947Z,17.50
2018-09-18T07:35:07.387Z,17.60
2018-09-18T07:37:35.760Z,17.70
2018-09-18T07:40:04.132Z,17.80
2018-09-18T07:42:32.461Z,18.00
2018-09-18T07:45:00.869Z,18.10
2018-09-18T07:47:29.238Z,18.40
2018-09-18T07:49:57.559Z,18.50
2018-09-18T07:52:25.896Z,18.50
2018-09-18T07:54:54.218Z,18.70
2018-09-18T07:57:22.588Z,18.70
2018-09-18T07:59:50.919Z,18.90
2018-09-18T08:02:19.252Z,19.00
2018-09-18T08:04:47.630Z,19.00
2018-09-18T08:07:16.016Z,19.10
2018-09-18T08:09:44.329Z,19.30
2018-09-18T08:12:12.664Z,19.40
2018-09-18T08:14:40.977Z,19.50
2018-09-18T08:17:09.337Z,19.60
2018-09-18T08:19:37.766Z,19.70
2018-09-18T08:22:06.095Z,19.80
2018-09-18T08:24:34.361Z,19.90
2018-09-18T08:27:02.762Z,20.00
2018-09-18T08:29:31.113Z,20.20
2018-09-18T08:31:59.452Z,20.30
2018-09-18T08:34:27.817Z,20.30
2018-09-18T08:36:56.176Z,20.50
2018-09-18T08:39:24.516Z,20.60
2018-09-18T08:41:52.810Z,20.70
2018-09-18T08:44:21.188Z,20.90
2018-09-18T08:46:49.529Z,21.00
2018-09-18T08:49:17.887Z,21.20
2018-09-18T08:51:46.246Z,21.20
2018-09-18T08:54:14.512Z,21.40
2018-09-18T08:56:42.952Z,21.40
2018-09-18T08:59:11.311Z,21.50
2018-09-18T09:01:39.687Z,21.50
2018-09-18T09:04:08.049Z,21.70
2018-09-18T09:06:36.417Z,21.80
2018-09-18T09:09:08.766Z,22.00
2018-09-18T09:11:37.117Z,22.00
2018-09-18T09:14:05.472Z,22.20
2018-09-18T09:16:33.856Z,22.30
2018-09-18T09:19:02.590Z,22.60
2018-09-18T09:21:31.031Z,22.70
2018-09-18T09:23:59.370Z,22.80
2018-09-18T09:26:27.794Z,23.00
2018-09-18T09:28:56.082Z,23.00
2018-09-18T09:31:24.501Z,23.10
2018-09-18T09:33:52.893Z,23.10
2018-09-18T09:36:21.221Z,23.30
2018-09-18T09:38:49.721Z,23.40
2018-09-18T09:41:18.068Z,23.40
2018-09-18T09:43:46.406Z,23.60
2018-09-18T09:46:14.777Z,23.70
2018-09-18T09:48:43.151Z,23.90
2018-09-18T09:51:11.510Z,24.10
2018-09-18T09:53:39.865Z,24.30
2018-09-18T09:56:08.212Z,24.40
2018-09-18T09:58:36.589Z,24.50
2018-09-18T10:01:10.368Z,24.60
2018-09-18T10:03:38.814Z,24.70
2018-09-18T10:06:07.215Z,24.80
2018-09-18T10:08:35.508Z,24.90
2018-09-18T10:11:03.945Z,25.10
2018-09-18T10:13:32.212Z,25.30
2018-09-18T10:16:00.526Z,25.60
2018-09-18T10:18:28.852Z,25.80
2018-09-18T10:20:57.177Z,25.90
2018-09-18T10:23:25.564Z,26.00
2018-09-18T10:25:53.918Z,25.90
2018-09-18T10:28:22.222Z,25.90
2018-09-18T10:30:50.542Z,25.80
2018-09-18T10:33:18.924Z,25.80
2018-09-18T10:35:47.344Z,25.90
2018-09-18T10:38:15.733Z,26.00
2018-09-18T10:40:44.051Z,26.30
2018-09-18T10:43:12.392Z,26.30
2018-09-18T10:45:40.735Z,26.40
2018-09-18T10:48:09.069Z,26.50
2018-09-18T10:50:37.555Z,26.60
2018-09-18T10:53:06.022Z,26.70
2018-09-18T10:55:34.414Z,27.10
2018-09-18T10:58:02.769Z,27.50
2018-09-18T11:00:31.132Z,28.10
2018-09-18T11:02:59.455Z,28.60
2018-09-18T11:05:27.819Z,28.70
2018-09-18T11:07:56.204Z,28.80
2018-09-18T11:10:24.478Z,29.10
2018-09-18T11:12:53.242Z,29.50
2018-09-18T11:15:21.686Z,29.80
2018-09-18T11:17:50.081Z,30.30
2018-09-18T11:20:18.542Z,30.40
2018-09-18T11:22:46.777Z,30.50
2018-09-18T11:25:15.170Z,30.60
2018-09-18T11:27:43.589Z,30.70
2018-09-18T11:30:11.919Z,30.70
2018-09-18T11:32:40.419Z,31.00
2018-09-18T11:35:08.713Z,31.10
2018-09-18T11:37:37.206Z,31.20
2018-09-18T11:40:05.612Z,31.50
2018-09-18T11:42:34.055Z,31.60
2018-09-18T11:45:02.444Z,31.70
2018-09-18T11:47:30.833Z,31.80
2018-09-18T11:49:59.438Z,32.00
2018-09-18T11:52:27.826Z,31.90
2018-09-18T11:54:56.280Z,31.80
2018-09-18T11:57:24.828Z,31.80
2018-09-18T11:59:53.198Z,32.00
2018-09-18T12:02:21.596Z,32.30
2018-09-18T12:04:50.257Z,32.30
2018-09-18T12:07:18.528Z,32.30
2018-09-18T12:09:47.189Z,32.30
2018-09-18T12:12:15.604Z,32.50
2018-09-18T12:14:44.013Z,32.40
2018-09-18T12:17:12.419Z,32.50
2018-09-18T12:19:40.771Z,32.00
2018-09-18T12:22:09.223Z,31.30
2018-09-18T12:24:37.633Z,31.00
2018-09-18T12:27:06.038Z,30.90
2018-09-18T12:29:34.542Z,30.70
2018-09-18T12:32:02.936Z,30.80
2018-09-18T12:34:31.260Z,31.10
2018-09-18T12:36:59.620Z,31.70
2018-09-18T12:39:27.961Z,32.00
2018-09-18T12:41:56.748Z,31.90
2018-09-18T12:44:25.000Z,32.00
2018-09-18T12:46:53.381Z,32.10
2018-09-18T12:49:21.822Z,32.30
2018-09-18T12:51:50.080Z,32.40
2018-09-18T12:54:18.646Z,32.30
2018-09-18T12:56:46.994Z,32.30
2018-09-18T12:59:15.453Z,32.60
2018-09-18T13:01:43.763Z,32.80
2018-09-18T13:04:12.277Z,33.00
2018-09-18T13:06:40.656Z,33.00
2018-09-18T13:09:10.732Z,33.20
2018-09-18T13:11:39.250Z,33.50
2018-09-18T13:14:07.876Z,33.40
2018-09-18T13:16:36.200Z,33.60
2018-09-18T13:19:04.567Z,33.70
2018-09-18T13:21:32.950Z,33.80
2018-09-18T13:24:01.356Z,33.80
2018-09-18T13:26:29.729Z,33.90
2018-09-18T13:28:58.097Z,34.30
2018-09-18T13:31:26.471Z,34.20
2018-09-18T13:33:54.868Z,34.30
2018-09-18T13:36:23.243Z,33.80
2018-09-18T13:38:51.837Z,33.10
2018-09-18T13:41:20.369Z,32.70
2018-09-18T13:43:48.730Z,32.70
2018-09-18T13:46:17.216Z,33.00
2018-09-18T13:48:45.643Z,33.40
2018-09-18T13:51:13.984Z,33.70
2018-09-18T13:53:42.381Z,34.10
2018-09-18T13:56:10.851Z,34.50
2018-09-18T13:58:39.217Z,34.70
2018-09-18T14:01:07.677Z,35.00
2018-09-18T14:03:35.960Z,35.20
2018-09-18T14:06:04.371Z,35.00
2018-09-18T14:08:32.717Z,34.90
2018-09-18T14:11:01.145Z,34.90
2018-09-18T14:13:29.568Z,35.00
2018-09-18T14:15:58.034Z,34.60
2018-09-18T14:18:26.503Z,34.30
2018-09-18T14:20:54.920Z,34.70
2018-09-18T14:23:23.278Z,35.00
2018-09-18T14:25:51.661Z,35.20
2018-09-18T14:28:20.029Z,35.50
2018-09-18T14:30:48.441Z,35.40
2018-09-18T14:33:16.852Z,35.50
2018-09-18T14:35:45.190Z,35.70
2018-09-18T14:38:13.523Z,36.00
2018-09-18T14:40:41.971Z,35.90
2018-09-18T14:43:10.432Z,35.70
2018-09-18T14:45:38.795Z,35.30
2018-09-18T14:48:07.120Z,35.20
2018-09-18T14:50:35.761Z,35.20
2018-09-18T14:53:04.260Z,34.90
2018-09-18T14:55:32.720Z,35.00
2018-09-18T14:58:01.477Z,34.90
2018-09-18T15:00:29.892Z,35.00
2018-09-18T15:02:58.250Z,34.90
2018-09-18T15:05:26.674Z,34.80
2018-09-18T15:07:55.068Z,34.80
2018-09-18T15:10:23.469Z,34.20
2018-09-18T15:12:51.882Z,34.20
2018-09-18T15:15:20.317Z,33.80
2018-09-18T15:17:48.639Z,33.30
2018-09-18T15:20:16.975Z,33.10
2018-09-18T15:22:45.771Z,32.80
2018-09-18T15:25:14.209Z,32.50
2018-09-18T15:27:42.696Z,32.10
2018-09-18T15:30:10.970Z,31.80
2018-09-18T15:32:39.360Z,31.40
2018-09-18T15:35:07.792Z,31.20
2018-09-18T15:37:36.218Z,31.00
2018-09-18T15:40:04.721Z,30.90
2018-09-18T15:42:33.020Z,30.80
2018-09-18T15:45:01.413Z,30.70
2018-09-18T15:47:29.819Z,30.70
2018-09-18T15:49:58.148Z,30.80
2018-09-18T15:52:26.544Z,30.80
2018-09-18T15:54:54.897Z,30.80
2018-09-18T15:57:23.266Z,30.70
2018-09-18T15:59:51.580Z,30.60
2018-09-18T16:02:19.907Z,30.50
2018-09-18T16:04:48.282Z,30.40
2018-09-18T16:07:16.646Z,30.30
2018-09-18T16:09:45.048Z,30.20
2018-09-18T16:12:13.428Z,30.10
2018-09-18T16:14:41.933Z,29.90
2018-09-18T16:17:10.238Z,29.80
2018-09-18T16:19:38.650Z,29.80
2018-09-18T16:22:07.060Z,29.60
2018-09-18T16:24:35.436Z,29.60
2018-09-18T16:27:03.839Z,29.50
2018-09-18T16:29:32.186Z,29.50
2018-09-18T16:32:00.578Z,29.30
2018-09-18T16:34:28.885Z,29.30
2018-09-18T16:36:57.286Z,29.20
2018-09-18T16:39:26.601Z,29.10
2018-09-18T16:41:55.724Z,29.10
2018-09-18T16:44:24.222Z,29.10
2018-09-18T16:46:52.574Z,29.10
2018-09-18T16:49:20.940Z,29.10
2018-09-18T16:51:49.301Z,29.20
2018-09-18T16:54:17.750Z,29.10
2018-09-18T16:56:46.065Z,29.10
2018-09-18T16:59:14.419Z,29.00
2018-09-18T17:01:42.782Z,28.90
2018-09-18T17:04:11.124Z,28.70
2018-09-18T17:06:39.570Z,28.70
2018-09-18T17:09:08.540Z,28.60
2018-09-18T17:11:37.286Z,28.50
2018-09-18T17:14:05.712Z,28.50
2018-09-18T17:16:34.210Z,28.30
2018-09-18T17:19:02.677Z,28.30
2018-09-18T17:21:31.068Z,28.20
2018-09-18T17:23:59.487Z,28.10
2018-09-18T17:26:27.845Z,27.80
2018-09-18T17:28:56.280Z,27.80
2018-09-18T17:31:24.565Z,27.70
2018-09-18T17:33:52.977Z,27.60
2018-09-18T17:36:21.368Z,27.50
2018-09-18T17:38:49.864Z,27.40
2018-09-18T17:41:18.249Z,27.30
2018-09-18T17:43:46.617Z,27.30
2018-09-18T17:46:15.080Z,27.00
2018-09-18T17:48:43.492Z,27.00
2018-09-18T17:51:11.837Z,26.80
2018-09-18T17:53:40.268Z,26.80
2018-09-18T17:56:08.567Z,26.70
2018-09-18T17:58:36.993Z,26.60
2018-09-18T18:01:05.354Z,26.50
2018-09-18T18:03:33.801Z,26.40
2018-09-18T18:06:02.224Z,26.40
2018-09-18T18:08:30.574Z,26.20
2018-09-18T18:10:59.055Z,26.10
2018-09-18T18:13:27.518Z,26.00
2018-09-18T18:15:55.944Z,25.90
2018-09-18T18:18:24.314Z,25.90
2018-09-18T18:20:52.776Z,25.80
2018-09-18T18:23:21.055Z,25.80
2018-09-18T18:25:49.502Z,25.70
2018-09-18T18:28:17.885Z,25.60
2018-09-18T18:30:46.256Z,25.60
2018-09-18T18:33:14.668Z,25.50
2018-09-18T18:35:43.102Z,25.40
2018-09-18T18:38:12.504Z,25.30
2018-09-18T18:40:40.903Z,25.20
2018-09-18T18:43:09.308Z,25.10
2018-09-18T18:45:37.668Z,25.10
2018-09-18T18:48:06.218Z,25.10
2018-09-18T18:50:34.483Z,25.00
2018-09-18T18:53:02.907Z,24.80
2018-09-18T18:55:31.288Z,24.70
2018-09-18T18:57:59.676Z,24.60
2018-09-18T19:00:28.197Z,24.50
2018-09-18T19:02:56.554Z,24.40
2018-09-18T19:05:25.022Z,24.30
2018-09-18T19:07:53.472Z,24.30
2018-09-18T19:10:21.971Z,24.20
2018-09-18T19:12:50.395Z,24.20
2018-09-18T19:15:18.737Z,24.10
2018-09-18T19:17:47.251Z,24.00
2018-09-18T19:20:16.007Z,23.90
2018-09-18T19:22:44.404Z,23.90
2018-09-18T19:25:12.808Z,23.80
2018-09-18T19:27:41.205Z,23.70
2018-09-18T19:30:09.584Z,23.70
2018-09-18T19:32:39.023Z,23.50
2018-09-18T19:35:07.460Z,23.50
2018-09-18T19:37:35.903Z,23.50
2018-09-18T19:40:04.356Z,23.40
2018-09-18T19:42:32.765Z,23.30
2018-09-18T19:45:01.255Z,23.20
2018-09-18T19:47:29.793Z,23.20
2018-09-18T19:49:59.060Z,23.20
2018-09-18T19:52:28.566Z,23.10
2018-09-18T19:54:57.746Z,22.90
2018-09-18T19:57:27.294Z,22.90
2018-09-18T19:59:55.691Z,22.90
2018-09-18T20:02:24.165Z,22.90
2018-09-18T20:04:52.613Z,22.80
2018-09-18T20:07:21.062Z,22.70
2018-09-18T20:09:49.456Z,22.70
2018-09-18T20:12:17.889Z,22.70
2018-09-18T20:14:46.276Z,22.70
2018-09-18T20:17:14.645Z,22.70
2018-09-18T20:19:44.884Z,22.60
2018-09-18T20:22:13.354Z,22.60
2018-09-18T20:24:41.731Z,22.60
2018-09-18T20:27:10.123Z,22.50
2018-09-18T20:29:38.656Z,22.50
2018-09-18T20:32:07.037Z,22.40
2018-09-18T20:34:35.441Z,22.30
2018-09-18T20:37:03.874Z,22.30
2018-09-18T20:39:32.270Z,22.30
2018-09-18T20:42:00.628Z,22.20
2018-09-18T20:44:29.020Z,22.20
2018-09-18T20:46:58.047Z,22.30
2018-09-18T20:49:26.342Z,22.20
2018-09-18T20:51:54.699Z,22.10
2018-09-18T20:54:23.048Z,22.10
2018-09-18T20:56:51.498Z,22.10
2018-09-18T20:59:19.876Z,22.10
2018-09-18T21:01:48.245Z,22.00
2018-09-18T21:04:16.620Z,21.90
2018-09-18T21:06:45.014Z,21.90
2018-09-18T21:09:13.372Z,21.90
2018-09-18T21:11:41.737Z,21.90
2018-09-18T21:14:10.267Z,21.80
2018-09-18T21:16:38.656Z,21.80
2018-09-18T21:19:07.183Z,21.70
2018-09-18T21:21:35.589Z,21.60
2018-09-18T21:24:03.935Z,21.60
2018-09-18T21:26:32.327Z,21.50
2018-09-18T21:29:00.712Z,21.50
2018-09-18T21:31:29.047Z,21.50
2018-09-18T21:33:57.389Z,21.50
2018-09-18T21:36:25.735Z,21.40
2018-09-18T21:38:54.084Z,21.40
2018-09-18T21:41:22.424Z,21.40
2018-09-18T21:43:50.819Z,21.40
2018-09-18T21:46:19.150Z,21.40
2018-09-18T21:48:47.583Z,21.30
2018-09-18T21:51:15.943Z,21.30
2018-09-18T21:53:44.259Z,21.30
2018-09-18T21:56:12.622Z,21.20
2018-09-18T21:58:41.017Z,21.20
2018-09-18T22:01:09.438Z,21.20
2018-09-18T22:03:37.799Z,21.20
2018-09-18T22:06:05.842Z,21.20
2018-09-18T22:08:34.237Z,21.20
2018-09-18T22:11:02.611Z,21.10
2018-09-18T22:13:30.928Z,21.10
2018-09-18T22:15:59.310Z,21.10
2018-09-18T22:18:27.641Z,21.20
2018-09-18T22:20:56.021Z,21.10
2018-09-18T22:23:24.372Z,21.10
2018-09-18T22:25:52.737Z,21.00
2018-09-18T22:28:21.080Z,21.10
2018-09-18T22:30:49.416Z,21.10
2018-09-18T22:33:17.777Z,21.10
2018-09-18T22:35:46.480Z,21.00
2018-09-18T22:38:14.832Z,21.00
2018-09-18T22:40:43.200Z,21.00
2018-09-18T22:43:11.636Z,21.00
2018-09-18T22:45:39.983Z,21.00
2018-09-18T22:48:08.373Z,20.90
2018-09-18T22:50:36.737Z,20.90
2018-09-18T22:53:05.103Z,20.80
2018-09-18T22:55:33.476Z,20.80
2018-09-18T22:58:01.837Z,20.80
2018-09-18T23:00:30.166Z,20.80
2018-09-18T23:02:58.521Z,20.80
2018-09-18T23:05:26.903Z,20.70
2018-09-18T23:07:55.265Z,20.60
2018-09-18T23:10:23.582Z,20.60
2018-09-18T23:12:51.987Z,20.60
2018-09-18T23:15:20.273Z,20.60
2018-09-18T23:17:48.646Z,20.60
2018-09-18T23:20:16.948Z,20.50
2018-09-18T23:22:45.332Z,20.50
2018-09-18T23:25:13.683Z,20.50
2018-09-18T23:27:42.016Z,20.50
2018-09-18T23:30:10.400Z,20.40
2018-09-18T23:32:38.664Z,20.30
2018-09-18T23:35:07.044Z,20.30
2018-09-18T23:37:35.376Z,20.20
2018-09-18T23:40:03.740Z,20.20
2018-09-18T23:42:32.085Z,20.10
2018-09-18T23:45:00.439Z,20.10
2018-09-18T23:47:28.733Z,20.10
2018-09-18T23:49:57.080Z,20.00
2018-09-18T23:52:25.404Z,20.00
2018-09-18T23:54:53.757Z,19.90
2018-09-18T23:57:22.103Z,19.90
2018-09-18T23:59:50.413Z,19.90
